createdAt,value
2023-04-18T00:01:38.321Z,101009.59
2023-04-18T00:04:06.612Z,101011.81
2023-04-18T00:06:36.001Z,101006.72
2023-04-18T00:09:05.334Z,101000.53
2023-04-18T00:11:33.170Z,101002.56
2023-04-18T00:14:01.010Z,101003.50
2023-04-18T00:16:28.881Z,101004.56
2023-04-18T00:18:57.230Z,101003.91
2023-04-18T00:21:25.653Z,101006.25
2023-04-18T00:23:53.614Z,101007.50
2023-04-18T00:26:22.682Z,100999.19
2023-04-18T00:28:51.859Z,101006.63
2023-04-18T00:31:19.657Z,101003.72
2023-04-18T00:33:47.489Z,100994.34
2023-04-18T00:36:15.238Z,100991.34
2023-04-18T00:38:42.933Z,100997.06
2023-04-18T00:41:10.770Z,100998.47
2023-04-18T00:43:39.912Z,101005.25
2023-04-18T00:46:07.806Z,101000.25
2023-04-18T00:48:36.044Z,100996.19
2023-04-18T00:51:04.120Z,100995.06
2023-04-18T00:53:31.999Z,101002.44
2023-04-18T00:55:59.916Z,101007.22
2023-04-18T00:58:27.902Z,100992.59
2023-04-18T01:00:57.057Z,100997.25
2023-04-18T01:03:25.639Z,100997.63
2023-04-18T01:05:54.444Z,100999.72
2023-04-18T01:08:23.321Z,100994.69
2023-04-18T01:10:51.206Z,100993.19
2023-04-18T01:13:21.112Z,100997.28
2023-04-18T01:15:50.931Z,100995.72
2023-04-18T01:18:20.893Z,100981.69
2023-04-18T01:20:50.057Z,100983.59
2023-04-18T01:23:18.816Z,100979.59
2023-04-18T01:25:49.217Z,100974.56
2023-04-18T01:28:17.075Z,100977.47
2023-04-18T01:30:44.830Z,100980.63
2023-04-18T01:33:12.649Z,100976.47
2023-04-18T01:35:40.331Z,100966.88
2023-04-18T01:38:08.162Z,100971.31
2023-04-18T01:40:35.957Z,100968.66
2023-04-18T01:43:12.735Z,100968.19
2023-04-18T01:45:40.544Z,100961.09
2023-04-18T01:48:08.256Z,100957.75
2023-04-18T01:50:35.941Z,100960.88
2023-04-18T01:53:03.558Z,100949.69
2023-04-18T01:55:31.220Z,100949.78
2023-04-18T01:57:58.917Z,100950.91
2023-04-18T02:00:28.183Z,100952.97
2023-04-18T02:02:56.040Z,100952.19
2023-04-18T02:05:24.019Z,100951.53
2023-04-18T02:07:51.692Z,100956.06
2023-04-18T02:10:21.106Z,100954.38
2023-04-18T02:12:48.915Z,100956.25
2023-04-18T02:15:16.592Z,100957.09
2023-04-18T02:17:49.035Z,100957.03
2023-04-18T02:20:16.812Z,100962.41
2023-04-18T02:22:44.733Z,100962.50
2023-04-18T02:25:12.440Z,100964.97
2023-04-18T02:27:40.289Z,100964.00
2023-04-18T02:30:08.949Z,100971.88
2023-04-18T02:32:36.715Z,100969.44
2023-04-18T02:35:06.688Z,100958.06
2023-04-18T02:37:34.333Z,100966.94
2023-04-18T02:40:03.210Z,100968.47
2023-04-18T02:42:30.901Z,100972.66
2023-04-18T02:44:58.704Z,100969.84
2023-04-18T02:47:26.607Z,100966.06
2023-04-18T02:49:54.410Z,100966.81
2023-04-18T02:52:23.748Z,100964.09
2023-04-18T02:54:51.503Z,100966.53
2023-04-18T02:57:19.211Z,100962.06
2023-04-18T02:59:46.856Z,100961.16
2023-04-18T03:02:14.509Z,100961.16
2023-04-18T03:04:42.222Z,100959.06
2023-04-18T03:07:09.975Z,100960.59
2023-04-18T03:09:39.077Z,100961.47
2023-04-18T03:12:07.028Z,100964.94
2023-04-18T03:14:34.916Z,100955.19
2023-04-18T03:17:02.666Z,100955.94
2023-04-18T03:19:31.854Z,100956.72
2023-04-18T03:21:59.578Z,100964.41
2023-04-18T03:24:27.201Z,100960.63
2023-04-18T03:26:56.703Z,100946.41
2023-04-18T03:29:24.500Z,100950.69
2023-04-18T03:31:52.170Z,100959.13
2023-04-18T03:34:19.934Z,100958.16
2023-04-18T03:36:48.298Z,100949.25
2023-04-18T03:39:16.029Z,100951.91
2023-04-18T03:41:43.720Z,100955.31
2023-04-18T03:44:13.061Z,100950.69
2023-04-18T03:46:41.361Z,100951.81
2023-04-18T03:49:09.190Z,100952.00
2023-04-18T03:51:44.161Z,100959.13
2023-04-18T03:54:12.071Z,100958.66
2023-04-18T03:56:40.090Z,100961.19
2023-04-18T03:59:07.802Z,100955.22
2023-04-18T04:01:37.386Z,100953.50
2023-04-18T04:04:06.307Z,100958.66
2023-04-18T04:06:34.076Z,100960.25
2023-04-18T04:09:02.176Z,100954.84
2023-04-18T04:11:31.665Z,100961.19
2023-04-18T04:13:59.342Z,100961.94
2023-04-18T04:16:28.314Z,100960.16
2023-04-18T04:18:57.390Z,100956.47
2023-04-18T04:21:25.126Z,100959.03
2023-04-18T04:23:52.846Z,100954.47
2023-04-18T04:26:23.055Z,100966.69
2023-04-18T04:28:51.674Z,100964.97
2023-04-18T04:31:19.422Z,100961.31
2023-04-18T04:33:47.137Z,100966.69
2023-04-18T04:36:18.828Z,100966.03
2023-04-18T04:38:47.286Z,100969.81
2023-04-18T04:41:15.067Z,100964.72
2023-04-18T04:43:42.835Z,100965.72
2023-04-18T04:46:13.629Z,100962.41
2023-04-18T04:48:42.179Z,100966.00
2023-04-18T04:51:09.885Z,100967.16
2023-04-18T04:53:39.103Z,100977.09
2023-04-18T04:56:07.197Z,100976.25
2023-04-18T04:58:34.868Z,100978.97
2023-04-18T05:01:02.644Z,100982.69
2023-04-18T05:03:31.306Z,100979.34
2023-04-18T05:05:59.256Z,100983.03
2023-04-18T05:08:32.763Z,100986.72
2023-04-18T05:11:02.157Z,100979.03
2023-04-18T05:13:30.174Z,100984.69
2023-04-18T05:15:59.244Z,100991.97
2023-04-18T05:18:27.000Z,100990.53
2023-04-18T05:20:55.779Z,100991.50
2023-04-18T05:23:23.586Z,101000.47
2023-04-18T05:25:51.477Z,101009.56
2023-04-18T05:28:20.501Z,101018.34
2023-04-18T05:30:48.265Z,101019.88
2023-04-18T05:33:15.985Z,101021.50
2023-04-18T05:35:43.652Z,101021.22
2023-04-18T05:38:11.361Z,101035.34
2023-04-18T05:40:39.029Z,101029.19
2023-04-18T05:43:06.767Z,101027.03
2023-04-18T05:45:35.996Z,101034.81
2023-04-18T05:48:03.760Z,101033.88
2023-04-18T05:50:31.769Z,101031.91
2023-04-18T05:52:59.952Z,101038.53
2023-04-18T05:55:27.660Z,101033.75
2023-04-18T05:57:55.562Z,101029.09
2023-04-18T06:00:23.690Z,101035.84
2023-04-18T06:02:52.934Z,101032.94
2023-04-18T06:05:24.944Z,101034.63
2023-04-18T06:07:52.768Z,101037.97
2023-04-18T06:10:20.618Z,101044.88
2023-04-18T06:12:48.341Z,101044.78
2023-04-18T06:15:16.017Z,101045.47
2023-04-18T06:17:44.629Z,101048.22
2023-04-18T06:20:14.414Z,101049.06
2023-04-18T06:22:42.170Z,101048.88
2023-04-18T06:25:10.578Z,101055.03
2023-04-18T06:27:38.366Z,101052.97
2023-04-18T06:30:07.701Z,101054.38
2023-04-18T06:32:35.638Z,101056.78
2023-04-18T06:35:03.654Z,101052.16
2023-04-18T06:37:32.741Z,101054.78
2023-04-18T06:40:00.399Z,101051.03
2023-04-18T06:42:28.110Z,101057.38
2023-04-18T06:44:55.871Z,101060.41
2023-04-18T06:47:24.036Z,101047.41
2023-04-18T06:49:51.738Z,101052.25
2023-04-18T06:52:19.502Z,101063.97
2023-04-18T06:54:48.559Z,101060.22
2023-04-18T06:57:16.799Z,101057.56
2023-04-18T06:59:44.430Z,101060.03
2023-04-18T07:02:12.231Z,101060.78
2023-04-18T07:04:40.079Z,101064.88
2023-04-18T07:07:07.900Z,101057.75
2023-04-18T07:09:35.893Z,101063.81
2023-04-18T07:12:05.273Z,101060.31
2023-04-18T07:14:34.208Z,101060.03
2023-04-18T07:17:02.685Z,101056.25
2023-04-18T07:19:31.827Z,101055.88
2023-04-18T07:21:59.614Z,101062.22
2023-04-18T07:24:27.327Z,101068.19
2023-04-18T07:26:55.357Z,101059.19
2023-04-18T07:29:24.572Z,101064.22
2023-04-18T07:31:52.921Z,101062.34
2023-04-18T07:34:22.024Z,101060.69
2023-04-18T07:36:50.056Z,101061.66
2023-04-18T07:39:17.777Z,101063.34
2023-04-18T07:41:45.562Z,101069.53
2023-04-18T07:44:13.444Z,101061.75
2023-04-18T07:46:42.867Z,101058.72
2023-04-18T07:49:10.662Z,101060.91
2023-04-18T07:51:38.463Z,101058.91
2023-04-18T07:54:06.277Z,101060.22
2023-04-18T07:56:33.933Z,101058.03
2023-04-18T07:59:01.809Z,101058.19
2023-04-18T08:01:29.507Z,101065.69
2023-04-18T08:04:01.809Z,101054.47
2023-04-18T08:06:30.208Z,101061.13
2023-04-18T08:08:59.075Z,101065.69
2023-04-18T08:11:28.082Z,101075.16
2023-04-18T08:13:55.847Z,101072.19
2023-04-18T08:16:23.567Z,101070.69
2023-04-18T08:18:51.405Z,101070.69
2023-04-18T08:21:21.089Z,101066.97
2023-04-18T08:23:48.826Z,101077.59
2023-04-18T08:26:16.566Z,101078.06
2023-04-18T08:28:46.287Z,101078.94
2023-04-18T08:31:15.110Z,101079.56
2023-04-18T08:33:43.161Z,101075.97
2023-04-18T08:36:12.085Z,101072.47
2023-04-18T08:38:41.198Z,101069.41
2023-04-18T08:41:09.526Z,101078.97
2023-04-18T08:43:38.874Z,101080.38
2023-04-18T08:46:07.923Z,101076.16
2023-04-18T08:48:37.304Z,101081.56
2023-04-18T08:51:05.589Z,101073.41
2023-04-18T08:53:35.206Z,101079.78
2023-04-18T08:56:05.694Z,101082.97
2023-04-18T08:58:35.115Z,101079.25
2023-04-18T09:01:03.488Z,101072.03
2023-04-18T09:03:43.097Z,101079.63
2023-04-18T09:06:13.846Z,101086.53
2023-04-18T09:08:43.594Z,101088.91
2023-04-18T09:11:26.659Z,101089.88
2023-04-18T09:13:56.306Z,101075.59
2023-04-18T09:16:24.919Z,101079.00
2023-04-18T09:19:13.621Z,101082.09
2023-04-18T09:21:44.801Z,101078.59
2023-04-18T09:24:24.120Z,101076.66
2023-04-18T09:26:55.865Z,101076.47
2023-04-18T09:29:24.308Z,101080.81
2023-04-18T09:32:01.170Z,101080.63
2023-04-18T09:34:29.986Z,101080.41
2023-04-18T09:37:09.050Z,101079.94
2023-04-18T09:39:38.852Z,101078.47
2023-04-18T09:42:10.441Z,101083.25
2023-04-18T09:44:38.684Z,101075.78
2023-04-18T09:47:07.255Z,101086.13
2023-04-18T09:49:35.305Z,101083.59
2023-04-18T09:52:07.784Z,101081.25
2023-04-18T09:54:39.320Z,101074.50
2023-04-18T09:57:13.017Z,101075.69
2023-04-18T09:59:47.718Z,101072.50
2023-04-18T10:02:22.738Z,101071.09
2023-04-18T10:04:51.656Z,101078.13
2023-04-18T10:07:19.953Z,101067.13
2023-04-18T10:09:48.086Z,101075.53
2023-04-18T10:12:19.104Z,101081.59
2023-04-18T10:14:47.225Z,101077.66
2023-04-18T10:17:15.649Z,101082.41
2023-04-18T10:19:46.142Z,101082.28
2023-04-18T10:22:14.300Z,101085.94
2023-04-18T10:24:50.205Z,101081.22
2023-04-18T10:27:20.228Z,101077.03
2023-04-18T10:29:49.324Z,101067.00
2023-04-18T10:32:17.466Z,101069.09
2023-04-18T10:34:46.994Z,101064.19
2023-04-18T10:37:14.834Z,101064.03
2023-04-18T10:39:56.754Z,101054.63
2023-04-18T10:42:57.819Z,101063.41
2023-04-18T10:45:28.844Z,101050.25
2023-04-18T10:48:24.864Z,101045.00
2023-04-18T10:51:15.639Z,101045.13
2023-04-18T10:53:49.982Z,101047.56
2023-04-18T10:56:17.858Z,101044.88
2023-04-18T10:58:51.552Z,101032.72
2023-04-18T11:01:28.621Z,101030.03
2023-04-18T11:03:59.323Z,101026.63
2023-04-18T11:06:27.688Z,101022.22
2023-04-18T11:09:10.923Z,101013.78
2023-04-18T11:11:38.683Z,101016.44
2023-04-18T11:14:06.435Z,101015.44
2023-04-18T11:16:36.115Z,101012.16
2023-04-18T11:19:19.565Z,101004.72
2023-04-18T11:21:47.344Z,101009.97
2023-04-18T11:24:23.710Z,101005.94
2023-04-18T11:26:55.631Z,101003.06
2023-04-18T11:29:23.971Z,101000.97
2023-04-18T11:31:57.573Z,100998.94
2023-04-18T11:34:31.422Z,100999.84
2023-04-18T11:36:59.086Z,100992.72
2023-04-18T11:39:26.958Z,100998.56
2023-04-18T11:41:56.546Z,100992.47
2023-04-18T11:44:25.599Z,100993.34
2023-04-18T11:46:55.153Z,100990.88
2023-04-18T11:49:30.361Z,100988.63
2023-04-18T11:51:58.278Z,100997.28
2023-04-18T11:54:42.092Z,100992.19
2023-04-18T11:57:21.731Z,100990.06
2023-04-18T11:59:51.139Z,100979.78
2023-04-18T12:02:21.549Z,100978.94
2023-04-18T12:04:57.621Z,100983.59
2023-04-18T12:07:36.124Z,100988.66
2023-04-18T12:10:04.451Z,100983.13
2023-04-18T12:12:32.346Z,100982.31
2023-04-18T12:15:01.409Z,100988.06
2023-04-18T12:17:31.811Z,100983.34
2023-04-18T12:20:03.937Z,100988.97
2023-04-18T12:22:40.082Z,100986.41
2023-04-18T12:25:19.961Z,100988.41
2023-04-18T12:27:51.987Z,100986.88
2023-04-18T12:30:22.012Z,100989.09
2023-04-18T12:32:53.234Z,100988.38
2023-04-18T12:35:21.843Z,100995.09
2023-04-18T12:37:51.018Z,100994.16
2023-04-18T12:40:19.860Z,100989.91
2023-04-18T12:42:48.302Z,100991.50
2023-04-18T12:45:17.596Z,100991.06
2023-04-18T12:47:47.062Z,100988.66
2023-04-18T12:50:19.669Z,100990.22
2023-04-18T12:52:47.621Z,100998.44
2023-04-18T12:55:15.890Z,100994.16
2023-04-18T12:57:44.320Z,100998.63
2023-04-18T13:00:14.026Z,100997.94
2023-04-18T13:02:43.665Z,101000.34
2023-04-18T13:05:13.170Z,101006.44
2023-04-18T13:07:43.364Z,100998.38
2023-04-18T13:10:12.986Z,101005.00
2023-04-18T13:12:42.280Z,101000.59
2023-04-18T13:15:10.820Z,100997.94
2023-04-18T13:17:39.785Z,100991.00
2023-04-18T13:20:10.489Z,100992.19
2023-04-18T13:22:38.777Z,100993.03
2023-04-18T13:25:11.427Z,100989.09
2023-04-18T13:27:41.794Z,100990.06
2023-04-18T13:30:12.014Z,100984.56
2023-04-18T13:32:40.769Z,100988.25
2023-04-18T13:35:10.899Z,100990.75
2023-04-18T13:37:39.437Z,100986.28
2023-04-18T13:40:09.913Z,100985.03
2023-04-18T13:42:38.494Z,100979.25
2023-04-18T13:45:07.468Z,100982.63
2023-04-18T13:47:35.860Z,100989.13
2023-04-18T13:50:03.936Z,100987.00
2023-04-18T13:52:31.782Z,100981.88
2023-04-18T13:54:59.632Z,100988.25
2023-04-18T13:57:31.951Z,100983.59
2023-04-18T13:59:59.760Z,100976.66
2023-04-18T14:02:27.776Z,100978.50
2023-04-18T14:04:56.496Z,100977.94
2023-04-18T14:07:24.261Z,100977.81
2023-04-18T14:09:53.756Z,100980.38
2023-04-18T14:12:22.286Z,100968.66
2023-04-18T14:14:51.490Z,100974.41
2023-04-18T14:17:19.444Z,100979.50
2023-04-18T14:19:48.242Z,100971.16
2023-04-18T14:22:15.947Z,100972.16
2023-04-18T14:24:44.030Z,100971.63
2023-04-18T14:27:11.994Z,100960.59
2023-04-18T14:29:39.834Z,100967.38
2023-04-18T14:32:08.906Z,100965.03
2023-04-18T14:34:37.436Z,100967.28
2023-04-18T14:37:06.507Z,100967.97
2023-04-18T14:39:34.362Z,100967.97
2023-04-18T14:42:02.177Z,100966.00
2023-04-18T14:44:30.781Z,100965.16
2023-04-18T14:46:58.576Z,100964.72
2023-04-18T14:49:27.758Z,100959.66
2023-04-18T14:51:55.385Z,100959.91
2023-04-18T14:54:23.439Z,100960.63
2023-04-18T14:56:51.353Z,100956.53
2023-04-18T14:59:19.312Z,100951.16
2023-04-18T15:01:47.288Z,100956.28
2023-04-18T15:04:15.584Z,100958.25
2023-04-18T15:06:45.093Z,100953.84
2023-04-18T15:09:15.915Z,100952.28
2023-04-18T15:11:43.692Z,100949.44
2023-04-18T15:14:11.523Z,100947.66
2023-04-18T15:16:40.826Z,100951.75
2023-04-18T15:19:08.854Z,100948.22
2023-04-18T15:21:36.856Z,100945.16
2023-04-18T15:24:06.406Z,100948.41
2023-04-18T15:26:34.202Z,100945.44
2023-04-18T15:29:03.765Z,100942.03
2023-04-18T15:31:31.716Z,100942.34
2023-04-18T15:33:59.573Z,100950.94
2023-04-18T15:36:27.795Z,100945.72
2023-04-18T15:38:55.818Z,100945.56
2023-04-18T15:41:25.082Z,100942.88
2023-04-18T15:43:53.724Z,100943.75
2023-04-18T15:46:22.129Z,100941.78
2023-04-18T15:48:50.002Z,100946.84
2023-04-18T15:51:17.907Z,100939.94
2023-04-18T15:53:45.697Z,100935.69
2023-04-18T15:56:13.802Z,100933.31
2023-04-18T15:58:42.947Z,100939.53
2023-04-18T16:01:13.081Z,100942.22
2023-04-18T16:03:41.000Z,100931.63
2023-04-18T16:06:10.038Z,100932.44
2023-04-18T16:08:38.301Z,100934.59
2023-04-18T16:11:06.409Z,100934.16
2023-04-18T16:13:38.231Z,100928.78
2023-04-18T16:16:08.392Z,100929.22
2023-04-18T16:18:36.125Z,100929.47
2023-04-18T16:21:03.969Z,100931.19
2023-04-18T16:23:32.998Z,100931.59
2023-04-18T16:26:00.754Z,100932.72
2023-04-18T16:28:30.067Z,100931.88
2023-04-18T16:30:58.262Z,100928.63
2023-04-18T16:33:27.674Z,100936.97
2023-04-18T16:35:58.626Z,100939.78
2023-04-18T16:38:27.346Z,100934.69
2023-04-18T16:40:56.529Z,100937.78
2023-04-18T16:43:26.769Z,100940.72
2023-04-18T16:45:56.519Z,100939.03
2023-04-18T16:48:24.605Z,100939.47
2023-04-18T16:50:53.741Z,100934.50
2023-04-18T16:53:22.703Z,100936.03
2023-04-18T16:55:52.213Z,100939.16
2023-04-18T16:58:21.055Z,100938.31
2023-04-18T17:00:48.876Z,100943.78
2023-04-18T17:03:16.992Z,100943.94
2023-04-18T17:05:44.875Z,100942.13
2023-04-18T17:08:14.023Z,100945.78
2023-04-18T17:10:41.802Z,100939.28
2023-04-18T17:13:09.636Z,100939.44
2023-04-18T17:15:38.250Z,100937.72
2023-04-18T17:18:06.286Z,100946.59
2023-04-18T17:20:35.966Z,100948.44
2023-04-18T17:23:04.248Z,100950.72
2023-04-18T17:25:33.416Z,100953.06
2023-04-18T17:28:02.256Z,100951.63
2023-04-18T17:30:30.505Z,100949.06
2023-04-18T17:32:58.367Z,100953.00
2023-04-18T17:35:26.189Z,100954.84
2023-04-18T17:37:54.894Z,100954.97
2023-04-18T17:40:22.950Z,100956.78
2023-04-18T17:42:54.654Z,100958.91
2023-04-18T17:45:22.366Z,100964.38
2023-04-18T17:47:50.924Z,100959.13
2023-04-18T17:50:19.109Z,100972.22
2023-04-18T17:52:46.948Z,100971.56
2023-04-18T17:55:14.940Z,100973.91
2023-04-18T17:57:42.661Z,100974.31
2023-04-18T18:00:13.816Z,100980.47
2023-04-18T18:02:42.871Z,100981.69
2023-04-18T18:05:13.516Z,100983.19
2023-04-18T18:07:43.863Z,100988.34
2023-04-18T18:10:14.448Z,100997.25
2023-04-18T18:12:42.494Z,100997.66
2023-04-18T18:15:12.437Z,100996.59
2023-04-18T18:17:40.339Z,101006.66
2023-04-18T18:20:10.879Z,101002.56
2023-04-18T18:22:38.571Z,101004.75
2023-04-18T18:25:07.329Z,101005.63
2023-04-18T18:27:35.272Z,101001.63
2023-04-18T18:30:03.172Z,101015.34
2023-04-18T18:32:32.263Z,101022.91
2023-04-18T18:35:00.038Z,101024.13
2023-04-18T18:37:28.151Z,101030.31
2023-04-18T18:39:56.199Z,101034.72
2023-04-18T18:42:24.047Z,101035.66
2023-04-18T18:44:51.777Z,101038.00
2023-04-18T18:47:19.806Z,101044.94
2023-04-18T18:49:49.681Z,101044.78
2023-04-18T18:52:17.481Z,101046.28
2023-04-18T18:54:45.367Z,101049.19
2023-04-18T18:57:13.330Z,101058.66
2023-04-18T18:59:41.529Z,101061.47
2023-04-18T19:02:09.437Z,101063.88
2023-04-18T19:04:37.377Z,101070.66
2023-04-18T19:07:07.224Z,101065.31
2023-04-18T19:09:36.844Z,101058.50
2023-04-18T19:12:04.703Z,101065.91
2023-04-18T19:14:32.834Z,101069.31
2023-04-18T19:17:01.202Z,101061.44
2023-04-18T19:19:28.950Z,101071.16
2023-04-18T19:21:57.849Z,101067.00
2023-04-18T19:24:27.126Z,101076.00
2023-04-18T19:26:55.075Z,101072.34
2023-04-18T19:29:23.516Z,101073.59
2023-04-18T19:31:51.929Z,101073.19
2023-04-18T19:34:19.841Z,101076.97
2023-04-18T19:36:47.575Z,101073.56
2023-04-18T19:39:16.539Z,101089.47
2023-04-18T19:41:46.157Z,101084.13
2023-04-18T19:44:13.995Z,101078.44
2023-04-18T19:46:41.835Z,101098.19
2023-04-18T19:49:09.792Z,101087.63
2023-04-18T19:51:40.084Z,101094.41
2023-04-18T19:54:07.937Z,101088.34
2023-04-18T19:56:35.707Z,101081.16
2023-04-18T19:59:06.035Z,101081.28
2023-04-18T20:01:33.855Z,101094.53
2023-04-18T20:04:02.082Z,101091.59
2023-04-18T20:06:30.992Z,101092.44
2023-04-18T20:08:58.684Z,101101.63
2023-04-18T20:11:26.413Z,101103.47
2023-04-18T20:13:56.611Z,101099.06
2023-04-18T20:16:25.751Z,101102.00
2023-04-18T20:18:54.953Z,101103.09
2023-04-18T20:21:22.918Z,101107.34
2023-04-18T20:23:51.138Z,101104.78
2023-04-18T20:26:19.306Z,101110.13
2023-04-18T20:28:47.138Z,101108.44
2023-04-18T20:31:14.969Z,101095.97
2023-04-18T20:33:44.079Z,101108.59
2023-04-18T20:36:11.799Z,101110.06
2023-04-18T20:38:40.271Z,101110.31
2023-04-18T20:41:10.688Z,101094.38
2023-04-18T20:43:38.612Z,101106.16
2023-04-18T20:46:06.951Z,101106.91
2023-04-18T20:48:34.877Z,101102.41
2023-04-18T20:51:03.948Z,101102.72
2023-04-18T20:53:32.099Z,101110.19
2023-04-18T20:56:02.009Z,101105.75
2023-04-18T20:58:30.652Z,101112.13
2023-04-18T21:00:58.378Z,101112.03
2023-04-18T21:03:26.203Z,101109.25
2023-04-18T21:05:54.129Z,101106.06
2023-04-18T21:08:23.177Z,101110.56
2023-04-18T21:10:50.913Z,101116.00
2023-04-18T21:13:18.762Z,101105.31
2023-04-18T21:15:46.477Z,101112.47
2023-04-18T21:18:14.372Z,101115.25
2023-04-18T21:20:42.131Z,101117.53
2023-04-18T21:23:09.876Z,101117.75
2023-04-18T21:25:38.900Z,101117.97
2023-04-18T21:28:07.901Z,101119.78
2023-04-18T21:30:35.696Z,101125.84
2023-04-18T21:33:03.446Z,101124.28
2023-04-18T21:35:31.193Z,101123.53
2023-04-18T21:37:59.189Z,101131.44
2023-04-18T21:40:30.484Z,101118.19
2023-04-18T21:42:59.675Z,101118.44
2023-04-18T21:45:27.632Z,101115.03
2023-04-18T21:47:55.525Z,101118.00
2023-04-18T21:50:23.505Z,101118.00
2023-04-18T21:52:51.223Z,101121.53
2023-04-18T21:55:19.133Z,101118.00
2023-04-18T21:57:46.873Z,101119.81
2023-04-18T22:00:16.954Z,101116.31
2023-04-18T22:02:44.738Z,101115.34
2023-04-18T22:05:12.842Z,101119.09
2023-04-18T22:07:50.509Z,101121.84
2023-04-18T22:10:22.811Z,101117.25
2023-04-18T22:12:53.928Z,101119.44
2023-04-18T22:15:24.823Z,101118.56
2023-04-18T22:17:52.687Z,101111.75
2023-04-18T22:20:21.573Z,101111.63
2023-04-18T22:22:49.263Z,101117.22
2023-04-18T22:25:17.027Z,101117.41
2023-04-18T22:27:45.179Z,101114.63
2023-04-18T22:30:14.416Z,101115.72
2023-04-18T22:32:43.535Z,101113.06
2023-04-18T22:35:11.384Z,101120.09
2023-04-18T22:37:39.123Z,101123.72
2023-04-18T22:40:08.817Z,101117.75
2023-04-18T22:42:38.585Z,101128.63
2023-04-18T22:45:07.875Z,101122.44
2023-04-18T22:47:35.565Z,101121.59
2023-04-18T22:50:10.663Z,101116.47
2023-04-18T22:52:38.353Z,101122.78
2023-04-18T22:55:06.786Z,101124.56
2023-04-18T22:57:34.492Z,101126.41
2023-04-18T23:00:02.274Z,101130.97
2023-04-18T23:02:30.038Z,101131.09
2023-04-18T23:04:58.268Z,101134.41
2023-04-18T23:07:27.414Z,101125.75
2023-04-18T23:09:55.479Z,101131.81
2023-04-18T23:12:23.200Z,101138.34
2023-04-18T23:14:50.920Z,101130.56
2023-04-18T23:17:18.632Z,101128.00
2023-04-18T23:19:46.403Z,101137.84
2023-04-18T23:22:14.034Z,101132.69
2023-04-18T23:24:51.325Z,101139.84
2023-04-18T23:27:19.646Z,101130.13
2023-04-18T23:29:48.640Z,101133.03
2023-04-18T23:32:16.373Z,101133.03
2023-04-18T23:34:44.092Z,101134.09
2023-04-18T23:37:15.537Z,101135.06
2023-04-18T23:39:44.596Z,101136.03
2023-04-18T23:42:12.305Z,101136.03
2023-04-18T23:44:40.017Z,101132.72
2023-04-18T23:47:07.825Z,101121.31
2023-04-18T23:49:35.528Z,101122.16
2023-04-18T23:52:03.304Z,101127.91
2023-04-18T23:54:31.182Z,101125.44
2023-04-18T23:57:00.206Z,101125.44
2023-04-18T23:59:39.755Z,101123.75
